createdAt,value
2019-04-16T00:00:34.216Z,855.90
2019-04-16T00:02:27.582Z,855.87
2019-04-16T00:03:27.588Z,855.87
2019-04-16T00:05:21.100Z,855.87
2019-04-16T00:06:20.928Z,855.89
2019-04-16T00:08:27.177Z,855.95
2019-04-16T00:09:14.256Z,855.95
2019-04-16T00:11:08.269Z,855.92
2019-04-16T00:12:08.043Z,855.92
2019-04-16T00:14:03.673Z,855.89
2019-04-16T00:15:01.379Z,855.88
2019-04-16T00:16:54.951Z,855.86
2019-04-16T00:17:54.711Z,855.85
2019-04-16T00:19:48.065Z,855.83
2019-04-16T00:20:48.065Z,855.82
2019-04-16T00:22:41.634Z,855.79
2019-04-16T00:23:41.401Z,855.74
2019-04-16T00:25:34.749Z,855.67
2019-04-16T00:26:34.802Z,855.62
2019-04-16T00:28:30.520Z,855.56
2019-04-16T00:29:32.708Z,855.58
2019-04-16T00:31:21.450Z,855.56
2019-04-16T00:32:21.425Z,855.54
2019-04-16T00:34:14.963Z,855.50
2019-04-16T00:35:15.685Z,855.47
2019-04-16T00:37:08.144Z,855.46
2019-04-16T00:38:08.132Z,855.45
2019-04-16T00:40:01.709Z,855.43
2019-04-16T00:41:02.023Z,855.46
2019-04-16T00:42:54.830Z,855.40
2019-04-16T00:43:54.810Z,855.42
2019-04-16T00:45:48.343Z,855.33
2019-04-16T00:46:48.149Z,855.34
2019-04-16T00:48:41.511Z,855.35
2019-04-16T00:49:41.513Z,855.37
2019-04-16T00:51:35.099Z,855.34
2019-04-16T00:52:36.950Z,855.33
2019-04-16T00:54:28.308Z,855.34
2019-04-16T00:55:28.224Z,855.32
2019-04-16T00:57:21.876Z,855.32
2019-04-16T00:58:22.122Z,855.22
2019-04-16T01:00:14.886Z,855.21
2019-04-16T01:01:14.880Z,855.14
2019-04-16T01:03:08.541Z,855.15
2019-04-16T01:04:08.229Z,855.15
2019-04-16T01:06:01.673Z,855.08
2019-04-16T01:07:01.559Z,855.08
2019-04-16T01:08:55.750Z,855.06
2019-04-16T01:09:54.908Z,855.07
2019-04-16T01:11:48.947Z,854.99
2019-04-16T01:12:48.253Z,855.02
2019-04-16T01:14:41.827Z,855.00
2019-04-16T01:15:41.590Z,854.97
2019-04-16T01:17:36.043Z,854.95
2019-04-16T01:18:38.461Z,854.95
2019-04-16T01:20:29.114Z,854.94
2019-04-16T01:21:28.836Z,854.90
2019-04-16T01:23:22.206Z,854.86
2019-04-16T01:24:22.197Z,854.83
2019-04-16T01:26:15.782Z,854.82
2019-04-16T01:27:15.561Z,854.79
2019-04-16T01:29:08.892Z,854.86
2019-04-16T01:30:08.890Z,854.83
2019-04-16T01:32:02.515Z,854.81
2019-04-16T01:33:02.275Z,854.83
2019-04-16T01:34:55.621Z,854.82
2019-04-16T01:35:55.619Z,854.82
2019-04-16T01:37:49.183Z,854.76
2019-04-16T01:38:48.962Z,854.79
2019-04-16T01:43:35.826Z,854.71
2019-04-16T01:44:35.638Z,854.68
2019-04-16T01:46:32.535Z,854.66
2019-04-16T01:47:29.007Z,854.64
2019-04-16T01:49:22.565Z,854.61
2019-04-16T01:50:22.347Z,854.57
2019-04-16T01:52:18.717Z,854.57
2019-04-16T01:53:18.387Z,854.55
2019-04-16T01:55:09.290Z,854.48
2019-04-16T01:56:09.054Z,854.50
2019-04-16T01:58:03.539Z,854.49
2019-04-16T01:59:05.524Z,854.47
2019-04-16T02:00:55.993Z,854.48
2019-04-16T02:01:55.770Z,854.45
2019-04-16T02:03:59.730Z,854.44
2019-04-16T02:04:52.109Z,854.45
2019-04-16T02:06:43.317Z,854.42
2019-04-16T02:07:42.453Z,854.43
2019-04-16T02:09:35.858Z,854.42
2019-04-16T02:10:38.523Z,854.45
2019-04-16T02:12:29.389Z,854.41
2019-04-16T02:13:29.150Z,854.37
2019-04-16T02:15:22.547Z,854.31
2019-04-16T02:16:25.224Z,854.27
2019-04-16T02:18:16.163Z,854.23
2019-04-16T02:19:15.849Z,854.23
2019-04-16T02:21:10.697Z,854.20
2019-04-16T02:22:12.547Z,854.16
2019-04-16T02:24:02.762Z,854.15
2019-04-16T02:25:02.549Z,854.12
2019-04-16T02:26:55.995Z,854.12
2019-04-16T02:27:57.021Z,854.09
2019-04-16T02:29:49.549Z,854.07
2019-04-16T02:30:49.249Z,854.03
2019-04-16T02:32:42.604Z,854.04
2019-04-16T02:33:42.587Z,854.03
2019-04-16T02:35:36.196Z,853.97
2019-04-16T02:36:35.970Z,854.04
2019-04-16T02:38:29.349Z,853.99
2019-04-16T02:39:47.366Z,854.03
2019-04-16T02:41:24.499Z,853.96
2019-04-16T02:42:22.664Z,853.96
2019-04-16T02:44:17.171Z,853.93
2019-04-16T02:45:23.032Z,853.90
2019-04-16T02:47:10.196Z,853.85
2019-04-16T02:48:14.702Z,853.83
2019-04-16T02:50:03.193Z,853.82
2019-04-16T02:51:07.260Z,853.86
2019-04-16T02:52:56.271Z,853.85
2019-04-16T02:53:58.681Z,853.84
2019-04-16T02:55:49.416Z,853.82
2019-04-16T02:56:52.106Z,853.83
2019-04-16T02:58:42.971Z,853.75
2019-04-16T02:59:46.264Z,853.72
2019-04-16T03:01:36.115Z,853.69
2019-04-16T03:02:36.070Z,853.68
2019-04-16T03:04:29.675Z,853.62
2019-04-16T03:07:22.872Z,853.62
2019-04-16T03:08:22.787Z,853.64
2019-04-16T03:10:16.371Z,853.54
2019-04-16T03:11:17.095Z,853.55
2019-04-16T03:13:09.482Z,853.56
2019-04-16T03:14:09.484Z,853.55
2019-04-16T03:16:06.159Z,853.45
2019-04-16T03:17:02.902Z,853.43
2019-04-16T03:18:56.265Z,853.46
2019-04-16T03:19:56.251Z,853.40
2019-04-16T03:21:50.193Z,853.34
2019-04-16T03:22:49.942Z,853.35
2019-04-16T03:24:43.546Z,853.34
2019-04-16T03:25:44.376Z,853.28
2019-04-16T03:27:37.708Z,853.18
2019-04-16T03:28:36.881Z,853.16
2019-04-16T03:30:30.255Z,853.15
2019-04-16T03:31:30.242Z,853.17
2019-04-16T03:33:23.379Z,853.16
2019-04-16T03:34:23.154Z,853.13
2019-04-16T03:36:16.513Z,853.08
2019-04-16T03:37:16.512Z,853.03
2019-04-16T03:39:13.202Z,852.96
2019-04-16T03:40:17.844Z,852.95
2019-04-16T03:42:03.512Z,853.00
2019-04-16T03:43:04.460Z,852.98
2019-04-16T03:44:56.391Z,852.87
2019-04-16T03:45:56.178Z,852.86
2019-04-16T03:47:51.327Z,852.85
2019-04-16T03:48:49.490Z,852.81
2019-04-16T03:50:43.038Z,852.72
2019-04-16T03:51:42.841Z,852.74
2019-04-16T03:53:35.732Z,852.77
2019-04-16T03:54:35.739Z,852.73
2019-04-16T03:56:30.655Z,852.73
2019-04-16T03:57:32.718Z,852.71
2019-04-16T03:59:22.401Z,852.72
2019-04-16T04:01:54.745Z,852.68
2019-04-16T04:02:55.266Z,852.65
2019-04-16T04:04:48.417Z,852.64
2019-04-16T04:05:47.815Z,852.68
2019-04-16T04:07:44.086Z,852.59
2019-04-16T04:08:41.151Z,852.53
2019-04-16T04:10:37.050Z,852.48
2019-04-16T04:11:34.489Z,852.50
2019-04-16T04:13:28.164Z,852.50
2019-04-16T04:14:27.828Z,852.47
2019-04-16T04:16:21.789Z,852.41
2019-04-16T04:17:21.171Z,852.31
2019-04-16T04:19:15.991Z,852.32
2019-04-16T04:20:18.153Z,852.30
2019-04-16T04:22:08.304Z,852.27
2019-04-16T04:23:08.524Z,852.23
2019-04-16T04:25:04.493Z,852.22
2019-04-16T04:26:01.630Z,852.18
2019-04-16T04:27:55.575Z,852.19
2019-04-16T04:28:54.959Z,852.11
2019-04-16T04:30:49.046Z,852.02
2019-04-16T04:31:48.326Z,852.06
2019-04-16T04:33:43.085Z,851.98
2019-04-16T04:34:41.680Z,851.96
2019-04-16T04:36:35.255Z,851.86
2019-04-16T04:37:35.025Z,851.81
2019-04-16T04:39:28.383Z,851.83
2019-04-16T04:40:28.387Z,851.82
2019-04-16T04:42:21.971Z,851.84
2019-04-16T04:43:21.726Z,851.87
2019-04-16T04:45:15.096Z,851.79
2019-04-16T04:46:15.602Z,851.76
2019-04-16T04:48:11.180Z,851.77
2019-04-16T04:49:08.402Z,851.77
2019-04-16T04:51:06.886Z,851.79
2019-04-16T04:52:01.760Z,851.76
2019-04-16T04:53:55.332Z,851.74
2019-04-16T04:54:55.099Z,851.70
2019-04-16T04:56:48.490Z,851.68
2019-04-16T04:57:48.459Z,851.67
2019-04-16T04:59:46.130Z,851.64
2019-04-16T05:00:45.813Z,851.67
2019-04-16T05:02:39.171Z,851.62
2019-04-16T05:03:39.736Z,851.59
2019-04-16T05:05:32.790Z,851.57
2019-04-16T05:06:32.571Z,851.50
2019-04-16T05:08:28.659Z,851.45
2019-04-16T05:09:29.150Z,851.43
2019-04-16T05:11:19.699Z,851.43
2019-04-16T05:12:21.369Z,851.41
2019-04-16T05:14:12.606Z,851.46
2019-04-16T05:15:12.592Z,851.53
2019-04-16T05:17:06.495Z,851.60
2019-04-16T05:18:06.139Z,851.57
2019-04-16T05:19:59.290Z,851.36
2019-04-16T05:20:59.272Z,851.34
2019-04-16T05:22:54.459Z,851.30
2019-04-16T05:23:57.046Z,851.30
2019-04-16T05:25:46.076Z,851.37
2019-04-16T05:26:46.057Z,851.30
2019-04-16T05:28:44.484Z,851.23
2019-04-16T05:29:39.404Z,851.17
2019-04-16T05:31:34.366Z,851.15
2019-04-16T05:32:34.019Z,851.18
2019-04-16T05:35:59.468Z,851.14
2019-04-16T05:36:58.169Z,851.10
2019-04-16T05:38:55.507Z,851.06
2019-04-16T05:39:51.506Z,851.09
2019-04-16T05:41:45.139Z,851.05
2019-04-16T05:42:44.840Z,851.08
2019-04-16T05:44:38.294Z,850.95
2019-04-16T05:45:38.209Z,851.00
2019-04-16T05:47:31.823Z,850.84
2019-04-16T05:48:31.597Z,850.87
2019-04-16T05:50:28.728Z,850.83
2019-04-16T05:51:24.912Z,850.83
2019-04-16T05:53:18.490Z,850.89
2019-04-16T05:54:18.275Z,850.89
2019-04-16T05:56:11.794Z,850.85
2019-04-16T05:57:11.591Z,850.83
2019-04-16T05:59:04.776Z,850.81
2019-04-16T06:00:09.310Z,850.75
2019-04-16T06:01:57.845Z,850.70
2019-04-16T06:02:57.792Z,850.71
2019-04-16T06:04:55.649Z,850.64
2019-04-16T06:05:51.147Z,850.65
2019-04-16T06:07:44.524Z,850.50
2019-04-16T06:08:44.506Z,850.52
2019-04-16T06:10:38.091Z,850.43
2019-04-16T06:11:37.855Z,850.43
2019-04-16T06:13:31.207Z,850.47
2019-04-16T06:14:31.280Z,850.42
2019-04-16T06:16:25.759Z,850.34
2019-04-16T06:17:25.889Z,850.25
2019-04-16T06:19:17.884Z,850.19
2019-04-16T06:20:20.515Z,850.14
2019-04-16T06:22:11.472Z,850.07
2019-04-16T06:23:11.227Z,850.07
2019-04-16T06:25:09.242Z,849.95
2019-04-16T06:26:04.566Z,849.80
2019-04-16T06:28:01.221Z,849.90
2019-04-16T06:29:00.012Z,849.88
2019-04-16T06:30:52.348Z,849.78
2019-04-16T06:31:51.235Z,849.72
2019-04-16T06:33:44.872Z,849.69
2019-04-16T06:34:44.621Z,849.70
2019-04-16T06:36:37.951Z,849.63
2019-04-16T06:37:37.929Z,849.64
2019-04-16T06:39:31.514Z,849.60
2019-04-16T06:40:32.684Z,849.55
2019-04-16T06:42:24.713Z,849.49
2019-04-16T06:43:26.323Z,849.45
2019-04-16T06:45:18.177Z,849.58
2019-04-16T06:46:17.940Z,849.51
2019-04-16T06:48:13.169Z,849.54
2019-04-16T06:49:11.272Z,849.45
2019-04-16T06:51:04.834Z,849.48
2019-04-16T06:52:04.627Z,849.53
2019-04-16T06:53:57.961Z,849.49
2019-04-16T06:55:00.491Z,849.50
2019-04-16T06:56:51.547Z,849.50
2019-04-16T06:57:51.306Z,849.52
2019-04-16T06:59:44.647Z,849.39
2019-04-16T07:00:44.637Z,849.40
2019-04-16T07:02:43.097Z,849.31
2019-04-16T07:03:37.989Z,849.26
2019-04-16T07:05:32.999Z,849.32
2019-04-16T07:06:35.914Z,849.21
2019-04-16T07:08:36.902Z,849.22
2019-04-16T07:09:26.293Z,849.18
2019-04-16T07:11:18.107Z,849.20
2019-04-16T07:12:18.362Z,849.16
2019-04-16T07:14:15.584Z,849.11
2019-04-16T07:15:11.348Z,849.14
2019-04-16T07:17:04.733Z,849.15
2019-04-16T07:18:05.424Z,849.10
2019-04-16T07:19:58.876Z,849.09
2019-04-16T07:20:58.042Z,849.14
2019-04-16T07:22:53.000Z,849.07
2019-04-16T07:23:56.997Z,849.00
2019-04-16T07:25:45.356Z,848.95
2019-04-16T07:26:47.880Z,848.97
2019-04-16T07:28:38.118Z,848.93
2019-04-16T07:29:38.120Z,848.85
2019-04-16T07:31:34.726Z,848.84
2019-04-16T07:32:30.393Z,848.78
2019-04-16T07:34:23.837Z,848.70
2019-04-16T07:35:26.941Z,848.71
2019-04-16T07:37:17.929Z,848.65
2019-04-16T07:38:17.077Z,848.61
2019-04-16T07:40:18.019Z,848.59
2019-04-16T07:41:12.149Z,848.55
2019-04-16T07:43:04.039Z,848.49
2019-04-16T07:44:07.807Z,848.47
2019-04-16T07:46:57.161Z,848.39
2019-04-16T07:48:51.499Z,848.35
2019-04-16T07:49:50.511Z,848.25
2019-04-16T07:51:43.860Z,848.24
2019-04-16T07:52:43.849Z,848.24
2019-04-16T07:54:37.547Z,848.19
2019-04-16T07:57:30.543Z,848.06
2019-04-16T07:58:30.549Z,848.12
2019-04-16T08:00:23.197Z,848.06
2019-04-16T08:01:22.908Z,848.02
2019-04-16T08:03:16.584Z,847.97
2019-04-16T08:04:25.550Z,847.93
